Time;durP1;ratioP1;P1;durP2;ratioP2;P2;SDS_P1;SDS_P2;PMS_P1;PMS_P2;Temp;Humidity;BMP_temperature;BMP_pressure;BME280_temperature;BME280_humidity;BME280_pressure;Samples;Min_cycle;Max_cycle;Signal;HPM_P1;HPM_P2
2023/01/29 00:01:59;;;;;;;2.10;2.00;;;-2.60;98.20;;;;;;6196261;22;20481;-71
2023/01/29 00:04:26;;;;;;;1.90;1.80;;;-2.60;98.20;;;;;;6196363;23;20448;-71
2023/01/29 00:06:53;;;;;;;2.00;1.90;;;-2.60;98.20;;;;;;6185889;22;20450;-72
2023/01/29 00:09:20;;;;;;;2.00;1.90;;;-2.60;98.20;;;;;;6198538;23;20456;-72
2023/01/29 00:11:47;;;;;;;1.90;1.80;;;-2.60;98.20;;;;;;6188897;22;20445;-71
2023/01/29 00:14:14;;;;;;;1.90;1.80;;;-2.60;98.20;;;;;;6202166;23;20511;-71
2023/01/29 00:16:42;;;;;;;2.17;2.00;;;-2.60;98.20;;;;;;6184324;22;20477;-71
2023/01/29 00:19:10;;;;;;;2.00;1.90;;;-2.60;98.20;;;;;;6204315;23;20420;-71
2023/01/29 00:21:37;;;;;;;1.90;1.80;;;-2.60;98.20;;;;;;6184031;22;20450;-71
2023/01/29 00:24:05;;;;;;;1.90;1.80;;;-2.60;98.20;;;;;;6206229;23;20594;-71
2023/01/29 00:26:32;;;;;;;1.93;1.83;;;-2.70;98.20;;;;;;6181423;22;20958;-71
2023/01/29 00:29:02;;;;;;;1.90;1.80;;;-2.70;98.20;;;;;;6217682;23;20930;-71
2023/01/29 00:31:29;;;;;;;2.03;1.93;;;-2.70;98.20;;;;;;6179008;22;20479;-72
2023/01/29 00:33:56;;;;;;;2.13;2.00;;;-2.70;98.20;;;;;;6207384;23;20478;-71
2023/01/29 00:36:26;;;;;;;1.97;1.87;;;-2.70;98.20;;;;;;6182499;22;20481;-72
2023/01/29 00:38:59;;;;;;;1.90;1.80;;;-2.70;98.20;;;;;;6208618;23;20423;-72
2023/01/29 00:46:59;;;;;;;1.90;1.80;;;-2.80;98.20;;;;;;6189162;22;20507;-72
2023/01/29 00:49:26;;;;;;;2.10;2.00;;;-2.80;98.20;;;;;;6195913;23;20444;-72
2023/01/29 00:54:39;;;;;;;2.00;1.90;;;-2.80;98.20;;;;;;6190513;23;20514;-72
2023/01/29 00:57:06;;;;;;;1.90;1.80;;;-2.80;98.20;;;;;;6194416;22;20858;-72
2023/01/29 00:59:33;;;;;;;2.00;1.90;;;-2.90;98.20;;;;;;6193585;23;20420;-71
2023/01/29 01:04:45;;;;;;;2.00;1.90;;;-2.90;98.20;;;;;;6189787;23;20452;-72
2023/01/29 01:07:13;;;;;;;1.93;1.83;;;-2.90;98.20;;;;;;6196604;22;20508;-71
2023/01/29 01:12:25;;;;;;;2.07;1.97;;;-2.90;98.20;;;;;;6204099;22;20978;-71
2023/01/29 01:14:52;;;;;;;1.97;1.87;;;-2.90;98.20;;;;;;6196568;23;20790;-73
2023/01/29 01:17:19;;;;;;;1.90;1.80;;;-2.90;98.20;;;;;;6199738;22;20500;-72
2023/01/29 01:19:46;;;;;;;1.90;1.80;;;-2.90;98.20;;;;;;6188257;23;20420;-74
2023/01/29 01:22:15;;;;;;;1.90;1.80;;;-2.90;98.20;;;;;;6198830;22;20935;-73
2023/01/29 01:24:42;;;;;;;1.90;1.80;;;-2.90;98.20;;;;;;6191158;23;21003;-72
2023/01/29 01:27:09;;;;;;;2.00;1.90;;;-2.90;98.20;;;;;;6195662;22;20446;-73
2023/01/29 01:29:36;;;;;;;1.93;1.83;;;-2.90;98.20;;;;;;6192605;23;20989;-72
2023/01/29 01:32:03;;;;;;;2.10;2.00;;;-2.90;98.20;;;;;;6194886;22;20529;-72
2023/01/29 01:34:30;;;;;;;1.93;1.83;;;-3.00;98.20;;;;;;6195112;23;20446;-72
2023/01/29 01:36:57;;;;;;;2.00;1.90;;;-3.00;98.20;;;;;;6189374;22;20460;-72
2023/01/29 01:39:26;;;;;;;2.00;1.90;;;-3.00;98.20;;;;;;6197673;23;20423;-72
2023/01/29 01:41:53;;;;;;;1.90;1.80;;;-3.00;98.20;;;;;;6195515;22;20515;-72
2023/01/29 01:44:52;;;;;;;1.90;1.80;;;-3.00;98.20;;;;;;6199394;23;20452;-72
2023/01/29 01:47:22;;;;;;;1.90;1.80;;;-3.00;98.20;;;;;;6198504;22;20442;-72
2023/01/29 01:49:49;;;;;;;2.00;1.90;;;-3.00;98.20;;;;;;6186353;23;20411;-72
2023/01/29 01:52:19;;;;;;;2.03;1.93;;;-3.00;98.20;;;;;;6200752;22;20441;-72
2023/01/29 01:54:48;;;;;;;2.10;2.00;;;-3.00;98.20;;;;;;6189590;23;20443;-72
2023/01/29 01:57:23;;;;;;;1.93;1.83;;;-3.00;98.20;;;;;;6199534;22;20445;-73
2023/01/29 01:59:54;;;;;;;1.90;1.80;;;-3.10;98.20;;;;;;6188704;23;20400;-72
2023/01/29 02:10:41;;;;;;;2.13;2.00;;;-3.10;98.20;;;;;;6179966;23;20738;-73
2023/01/29 02:13:09;;;;;;;2.00;1.90;;;-3.10;98.20;;;;;;6214661;22;20547;-74
2023/01/29 02:15:40;;;;;;;2.03;1.93;;;-3.10;98.20;;;;;;6180456;23;20432;-70
2023/01/29 02:18:08;;;;;;;2.03;1.93;;;-3.20;98.20;;;;;;6212786;22;20786;-73
2023/01/29 02:20:35;;;;;;;2.10;2.00;;;-3.20;98.20;;;;;;6179700;23;20486;-72
2023/01/29 02:23:25;;;;;;;2.07;1.97;;;-3.20;98.20;;;;;;6214277;22;20446;-73
2023/01/29 02:26:25;;;;;;;1.97;1.87;;;-3.20;98.20;;;;;;6167219;22;20448;-73
2023/01/29 02:29:21;;;;;;;2.00;1.90;;;-3.20;98.20;;;;;;6211959;23;20416;-73
2023/01/29 02:31:56;;;;;;;2.00;1.90;;;-3.20;98.20;;;;;;6188567;22;20446;-73
2023/01/29 02:37:22;;;;;;;2.20;2.10;;;-3.20;98.20;;;;;;6200368;22;20484;-74
2023/01/29 02:39:57;;;;;;;2.00;1.90;;;-3.20;98.20;;;;;;6173566;23;21040;-72
2023/01/29 02:42:29;;;;;;;2.07;1.90;;;-3.30;98.20;;;;;;6206158;22;20449;-72
2023/01/29 02:45:04;;;;;;;2.00;1.90;;;-3.20;98.20;;;;;;6185909;23;20452;-72
2023/01/29 02:47:35;;;;;;;2.00;1.90;;;-3.30;98.20;;;;;;6205160;22;20453;-72
2023/01/29 02:50:08;;;;;;;2.00;1.90;;;-3.30;98.20;;;;;;6182773;23;20448;-72
2023/01/29 02:52:42;;;;;;;2.20;2.00;;;-3.30;98.20;;;;;;6208811;22;20770;-72
2023/01/29 02:55:13;;;;;;;2.07;1.90;;;-3.30;98.20;;;;;;6179026;23;20471;-71
2023/01/29 02:57:44;;;;;;;2.20;2.03;;;-3.30;98.20;;;;;;6208556;22;20449;-72
2023/01/29 03:00:17;;;;;;;2.20;2.00;;;-3.30;98.20;;;;;;6179582;23;20491;-71
2023/01/29 03:02:49;;;;;;;2.00;1.90;;;-3.30;98.20;;;;;;6211776;22;20475;-73
2023/01/29 03:05:21;;;;;;;2.10;2.00;;;-3.30;98.20;;;;;;6179467;23;20448;-72
2023/01/29 03:07:53;;;;;;;2.40;2.20;;;-3.30;98.20;;;;;;6211215;22;20977;-72
2023/01/29 03:10:23;;;;;;;2.00;1.90;;;-3.30;98.20;;;;;;6179220;23;20720;-72
2023/01/29 03:12:55;;;;;;;2.00;1.90;;;-3.20;98.20;;;;;;6213004;22;20506;-72
2023/01/29 03:15:28;;;;;;;2.00;1.90;;;-3.20;98.20;;;;;;6180112;23;20811;-72
2023/01/29 03:18:00;;;;;;;1.90;1.80;;;-3.20;98.20;;;;;;6211532;22;20445;-72
2023/01/29 03:20:33;;;;;;;2.10;2.00;;;-3.20;98.20;;;;;;6178746;23;20451;-72
2023/01/29 03:23:04;;;;;;;1.90;1.80;;;-3.20;98.20;;;;;;6213617;22;20456;-72
2023/01/29 03:34:02;;;;;;;2.00;1.90;;;-3.20;98.20;;;;;;6210506;23;20780;-72
2023/01/29 03:36:37;;;;;;;2.30;2.10;;;-3.20;98.20;;;;;;6180597;22;20532;-71
2023/01/29 03:39:04;;;;;;;1.90;1.80;;;-3.20;98.20;;;;;;6208173;23;20690;-72
2023/01/29 03:41:34;;;;;;;2.00;1.90;;;-3.20;98.20;;;;;;6189218;22;20533;-72
2023/01/29 03:44:13;;;;;;;2.00;1.90;;;-3.20;98.20;;;;;;6217500;23;20426;-72
2023/01/29 03:46:49;;;;;;;1.90;1.80;;;-3.20;98.20;;;;;;6183958;22;20656;-71
2023/01/29 03:49:22;;;;;;;2.10;2.00;;;-3.30;98.20;;;;;;6202868;23;20408;-72
2023/01/29 03:51:56;;;;;;;1.97;1.87;;;-3.20;98.20;;;;;;6187551;22;20450;-71
2023/01/29 03:54:29;;;;;;;2.00;1.90;;;-3.20;98.20;;;;;;6199583;23;20623;-71
2023/01/29 03:57:00;;;;;;;2.13;2.00;;;-3.20;98.20;;;;;;6190453;22;20869;-72
2023/01/29 03:59:39;;;;;;;1.90;1.80;;;-3.20;98.20;;;;;;6197409;23;20503;-72
2023/01/29 04:02:14;;;;;;;2.00;1.90;;;-3.10;98.20;;;;;;6195899;22;20872;-72
2023/01/29 04:04:45;;;;;;;2.00;1.90;;;-3.10;98.20;;;;;;6192461;23;20996;-72
2023/01/29 04:07:14;;;;;;;2.00;1.90;;;-3.00;98.20;;;;;;6197622;22;20449;-72
2023/01/29 04:09:46;;;;;;;2.00;1.90;;;-3.00;98.20;;;;;;6191438;23;20478;-72
2023/01/29 04:12:18;;;;;;;1.93;1.83;;;-3.00;98.20;;;;;;6199510;22;20449;-72
2023/01/29 04:14:46;;;;;;;1.90;1.80;;;-3.00;98.20;;;;;;6199018;23;20792;-73
2023/01/29 04:17:19;;;;;;;2.30;2.10;;;-3.00;98.20;;;;;;6197442;22;20474;-72
2023/01/29 04:19:46;;;;;;;2.00;1.90;;;-3.00;98.20;;;;;;6189078;23;20424;-72
2023/01/29 04:22:19;;;;;;;2.10;2.00;;;-3.00;98.20;;;;;;6199064;22;20453;-72
2023/01/29 04:24:47;;;;;;;2.00;1.90;;;-3.00;98.20;;;;;;6198605;23;20454;-72
2023/01/29 04:27:26;;;;;;;2.00;1.90;;;-3.00;98.20;;;;;;6197683;22;20452;-72
2023/01/29 04:30:03;;;;;;;2.00;1.90;;;-3.00;98.20;;;;;;6185692;23;20408;-72
2023/01/29 04:32:41;;;;;;;1.90;1.80;;;-3.00;98.20;;;;;;6206509;22;20476;-72
2023/01/29 04:35:22;;;;;;;2.00;1.90;;;-3.00;98.20;;;;;;6180065;23;20446;-72
2023/01/29 04:38:01;;;;;;;2.00;1.90;;;-3.10;98.20;;;;;;6210448;22;20761;-72
2023/01/29 04:40:38;;;;;;;2.00;1.90;;;-3.00;98.20;;;;;;6176745;23;20941;-72
2023/01/29 04:43:09;;;;;;;2.00;1.90;;;-3.10;98.20;;;;;;6211686;22;20528;-72
2023/01/29 04:45:45;;;;;;;4.20;3.90;;;-3.10;98.20;;;;;;6178038;23;21016;-72
2023/01/29 04:48:21;;;;;;;1.90;1.80;;;-3.10;98.20;;;;;;6210854;22;20470;-72
2023/01/29 04:50:56;;;;;;;2.20;2.00;;;-3.10;98.20;;;;;;6176795;23;20404;-72
2023/01/29 04:53:29;;;;;;;2.03;1.90;;;-3.10;98.20;;;;;;6160793;23;20431;-72
2023/01/29 04:56:00;;;;;;;1.90;1.80;;;-3.10;98.20;;;;;;6175643;22;20489;-72
2023/01/29 04:58:33;;;;;;;2.10;2.00;;;-3.10;98.20;;;;;;6220440;23;20431;-72
2023/01/29 05:01:04;;;;;;;4.10;3.90;;;-3.10;98.20;;;;;;6168287;22;20404;-72
2023/01/29 05:03:34;;;;;;;1.97;1.87;;;-3.10;98.20;;;;;;6219246;23;20450;-72
2023/01/29 05:06:02;;;;;;;2.20;2.00;;;-3.10;98.20;;;;;;6168732;22;20526;-72
2023/01/29 05:08:31;;;;;;;2.00;1.90;;;-3.10;98.20;;;;;;6229174;23;20420;-72
2023/01/29 05:11:00;;;;;;;4.03;3.80;;;-3.10;98.20;;;;;;6167180;22;20420;-72
2023/01/29 05:13:31;;;;;;;2.00;1.90;;;-3.10;98.20;;;;;;6220717;23;20428;-72
2023/01/29 05:16:02;;;;;;;2.00;1.90;;;-3.10;98.20;;;;;;6166582;22;20510;-72
2023/01/29 05:18:29;;;;;;;2.10;2.00;;;-3.10;98.20;;;;;;6219170;23;20467;-72
2023/01/29 05:21:02;;;;;;;2.93;2.73;;;-3.10;98.20;;;;;;6165769;22;20447;-72
2023/01/29 05:23:30;;;;;;;1.90;1.80;;;-3.10;98.20;;;;;;6220082;23;20411;-72
2023/01/29 05:25:57;;;;;;;2.10;2.00;;;-3.10;98.20;;;;;;6167380;22;20535;-72
2023/01/29 05:28:23;;;;;;;1.90;1.80;;;-3.10;98.20;;;;;;6223063;23;20420;-72
2023/01/29 05:30:52;;;;;;;2.00;1.90;;;-3.10;98.20;;;;;;6165686;22;20918;-72
2023/01/29 05:33:21;;;;;;;3.80;3.10;;;-3.10;98.20;;;;;;6226945;23;20423;-72
2023/01/29 05:35:48;;;;;;;2.00;1.90;;;-3.10;98.20;;;;;;6180041;23;20436;-73
2023/01/29 05:38:17;;;;;;;1.90;1.80;;;-3.00;98.20;;;;;;6163192;23;20438;-72
2023/01/29 05:40:45;;;;;;;1.90;1.80;;;-3.00;98.20;;;;;;6178559;23;20675;-73
2023/01/29 05:43:17;;;;;;;3.80;3.60;;;-3.00;98.20;;;;;;6162952;23;20462;-72
2023/01/29 05:45:51;;;;;;;2.00;1.90;;;-3.00;98.20;;;;;;6179951;23;20448;-75
2023/01/29 05:48:18;;;;;;;2.10;2.00;;;-3.00;98.20;;;;;;6162108;23;20463;-72
2023/01/29 05:50:46;;;;;;;2.00;1.90;;;-3.00;98.20;;;;;;6179120;23;20584;-73
2023/01/29 05:53:13;;;;;;;2.00;1.90;;;-3.00;98.20;;;;;;6162307;23;20773;-72
2023/01/29 05:55:44;;;;;;;2.00;1.90;;;-3.00;98.20;;;;;;6180120;23;20431;-72
2023/01/29 05:58:11;;;;;;;1.90;1.80;;;-3.00;98.20;;;;;;6212978;22;20447;-72
2023/01/29 06:00:39;;;;;;;1.90;1.80;;;-3.00;98.20;;;;;;6179933;23;20427;-72
2023/01/29 06:03:06;;;;;;;2.30;2.10;;;-3.00;98.20;;;;;;6214264;22;20497;-72
2023/01/29 06:05:33;;;;;;;2.00;1.90;;;-3.10;98.20;;;;;;6179681;23;20531;-72
2023/01/29 06:08:00;;;;;;;2.00;1.90;;;-3.10;98.20;;;;;;6212576;22;20515;-72
2023/01/29 06:10:27;;;;;;;1.90;1.80;;;-3.10;98.20;;;;;;6177265;23;20435;-71
2023/01/29 06:12:55;;;;;;;2.10;2.00;;;-3.10;98.20;;;;;;6213490;22;21027;-73
2023/01/29 06:15:23;;;;;;;1.97;1.87;;;-3.10;98.20;;;;;;6179593;23;21028;-73
2023/01/29 06:17:50;;;;;;;2.00;1.90;;;-3.10;98.20;;;;;;6211801;22;20790;-73
2023/01/29 06:20:17;;;;;;;2.13;2.03;;;-3.10;98.20;;;;;;6175545;23;20841;-72
2023/01/29 06:22:45;;;;;;;2.00;1.90;;;-3.10;98.20;;;;;;6202641;22;20525;-73
2023/01/29 06:25:12;;;;;;;1.97;1.87;;;-3.10;98.20;;;;;;6179670;23;21043;-72
2023/01/29 06:27:39;;;;;;;1.90;1.80;;;-3.10;98.20;;;;;;6207989;22;20453;-72
2023/01/29 06:30:09;;;;;;;2.07;1.97;;;-3.00;98.20;;;;;;6180833;23;20495;-72
2023/01/29 06:32:37;;;;;;;2.00;1.90;;;-3.00;98.20;;;;;;6205907;22;20549;-72
2023/01/29 06:35:05;;;;;;;2.10;2.00;;;-3.00;98.20;;;;;;6180962;23;20443;-72
2023/01/29 06:37:32;;;;;;;2.00;1.90;;;-3.00;98.20;;;;;;6204468;22;20447;-72
2023/01/29 06:39:59;;;;;;;1.93;1.83;;;-3.00;98.20;;;;;;6183524;23;20419;-72
2023/01/29 06:42:26;;;;;;;1.90;1.80;;;-2.90;98.20;;;;;;6204748;22;20822;-72
2023/01/29 06:44:54;;;;;;;2.00;1.90;;;-2.90;98.20;;;;;;6187069;23;20475;-72
2023/01/29 06:47:22;;;;;;;2.00;1.90;;;-2.80;98.20;;;;;;6199324;22;20450;-72
2023/01/29 06:49:50;;;;;;;2.00;1.90;;;-2.80;98.20;;;;;;6187596;23;20757;-72
2023/01/29 06:52:17;;;;;;;1.90;1.80;;;-2.70;98.20;;;;;;6200747;22;20470;-72
2023/01/29 06:54:45;;;;;;;1.90;1.80;;;-2.70;98.20;;;;;;6189361;23;20841;-73
2023/01/29 06:57:12;;;;;;;1.80;1.70;;;-2.60;98.20;;;;;;6195253;22;20992;-73
2023/01/29 06:59:39;;;;;;;1.97;1.87;;;-2.60;98.20;;;;;;6192259;23;20486;-72
2023/01/29 07:02:07;;;;;;;1.90;1.80;;;-2.60;98.20;;;;;;6194480;22;20446;-72
2023/01/29 07:04:36;;;;;;;1.90;1.80;;;-2.50;98.20;;;;;;6195067;23;20484;-73
2023/01/29 07:07:04;;;;;;;2.00;1.90;;;-2.50;98.20;;;;;;6192718;22;20769;-72
2023/01/29 07:09:31;;;;;;;2.00;1.90;;;-2.50;98.20;;;;;;6195065;23;20420;-73
2023/01/29 07:11:58;;;;;;;1.90;1.80;;;-2.40;98.20;;;;;;6190161;22;20488;-73
2023/01/29 07:14:25;;;;;;;1.90;1.80;;;-2.40;98.20;;;;;;6198580;23;20444;-73
2023/01/29 07:16:52;;;;;;;1.90;1.80;;;-2.40;98.20;;;;;;6188534;22;20446;-73
2023/01/29 07:19:20;;;;;;;1.90;1.80;;;-2.30;98.20;;;;;;6200141;23;20470;-72
2023/01/29 07:21:48;;;;;;;1.90;1.80;;;-2.30;98.20;;;;;;6187555;22;20446;-73
2023/01/29 07:24:16;;;;;;;1.90;1.80;;;-2.30;98.20;;;;;;6207523;23;20419;-72
2023/01/29 07:26:43;;;;;;;2.00;1.90;;;-2.20;98.20;;;;;;6185042;22;20450;-72
2023/01/29 07:29:10;;;;;;;2.00;1.90;;;-2.20;98.20;;;;;;6204362;23;20430;-73
2023/01/29 07:31:37;;;;;;;3.57;3.37;;;-2.20;98.20;;;;;;6182524;22;20740;-73
2023/01/29 07:34:04;;;;;;;7.00;6.50;;;-2.10;98.20;;;;;;6207612;23;20624;-71
2023/01/29 07:36:31;;;;;;;1.80;1.70;;;-2.10;98.20;;;;;;6180968;22;20552;-73
2023/01/29 07:39:00;;;;;;;2.20;2.00;;;-2.10;98.20;;;;;;6208859;23;20431;-73
2023/01/29 07:41:27;;;;;;;1.90;1.80;;;-2.00;98.20;;;;;;6178884;22;20457;-72
2023/01/29 07:43:54;;;;;;;1.90;1.80;;;-2.00;98.20;;;;;;6210168;23;20455;-73
2023/01/29 07:46:21;;;;;;;1.90;1.80;;;-2.00;98.20;;;;;;6174513;22;20504;-73
2023/01/29 07:48:48;;;;;;;1.90;1.80;;;-2.00;98.20;;;;;;6212444;23;20907;-73
2023/01/29 07:51:17;;;;;;;1.80;1.70;;;-1.90;98.20;;;;;;6174250;22;20446;-73
2023/01/29 07:53:44;;;;;;;1.80;1.70;;;-1.90;98.20;;;;;;6212565;23;20427;-73
2023/01/29 07:56:13;;;;;;;1.90;1.80;;;-1.90;98.20;;;;;;6172352;22;20784;-73
2023/01/29 07:58:40;;;;;;;11.77;10.90;;;-1.80;98.20;;;;;;6216640;23;20424;-73
2023/01/29 08:01:07;;;;;;;5.30;5.00;;;-1.80;98.20;;;;;;6169555;22;20753;-73
2023/01/29 08:03:34;;;;;;;1.80;1.70;;;-1.70;98.20;;;;;;6217893;23;20420;-73
2023/01/29 08:06:04;;;;;;;1.90;1.80;;;-1.70;98.20;;;;;;6167488;22;20484;-73
2023/01/29 08:08:31;;;;;;;1.83;1.73;;;-1.60;98.20;;;;;;6219113;23;20427;-72
2023/01/29 08:11:02;;;;;;;1.80;1.70;;;-1.60;98.20;;;;;;6165632;22;20471;-72
2023/01/29 08:13:30;;;;;;;1.90;1.80;;;-1.60;98.20;;;;;;6219070;23;20586;-73
2023/01/29 08:16:00;;;;;;;2.20;2.00;;;-1.60;98.20;;;;;;6175257;22;20482;-71
2023/01/29 08:18:27;;;;;;;1.80;1.70;;;-1.60;98.20;;;;;;6219025;23;20474;-73
2023/01/29 08:20:59;;;;;;;1.70;1.60;;;-1.60;98.20;;;;;;6163947;22;20930;-72
2023/01/29 08:23:27;;;;;;;1.80;1.70;;;-1.50;98.20;;;;;;6220675;23;20883;-71
2023/01/29 08:25:54;;;;;;;1.80;1.70;;;-1.50;98.20;;;;;;6164221;22;20448;-74
2023/01/29 08:28:21;;;;;;;1.90;1.80;;;-1.50;98.20;;;;;;6221678;23;20837;-74
2023/01/29 08:30:50;;;;;;;1.90;1.80;;;-1.50;98.20;;;;;;6161554;22;20424;-74
2023/01/29 08:33:17;;;;;;;1.80;1.70;;;-1.50;98.20;;;;;;6224365;23;20928;-73
2023/01/29 08:35:49;;;;;;;1.80;1.70;;;-1.50;98.20;;;;;;6176787;23;20483;-74
2023/01/29 08:38:16;;;;;;;1.83;1.73;;;-1.50;98.20;;;;;;6159034;23;20500;-72
2023/01/29 08:40:44;;;;;;;1.80;1.70;;;-1.40;98.20;;;;;;6177118;23;20481;-72
2023/01/29 08:43:12;;;;;;;1.80;1.70;;;-1.40;98.20;;;;;;6213167;22;20448;-71
2023/01/29 08:45:41;;;;;;;1.70;1.60;;;-1.30;98.20;;;;;;6170110;23;20444;-73
2023/01/29 08:48:10;;;;;;;1.80;1.70;;;-1.30;98.20;;;;;;6208404;22;20842;-73
2023/01/29 08:50:39;;;;;;;2.07;1.87;;;-1.20;98.20;;;;;;6172900;23;20499;-74
2023/01/29 08:53:08;;;;;;;1.80;1.70;;;-1.20;98.20;;;;;;6206328;22;20450;-73
2023/01/29 08:55:37;;;;;;;1.80;1.70;;;-1.20;98.20;;;;;;6172678;23;20440;-73
2023/01/29 08:58:05;;;;;;;1.80;1.70;;;-1.20;98.20;;;;;;6208314;22;20452;-73
2023/01/29 09:00:33;;;;;;;1.80;1.70;;;-1.10;98.20;;;;;;6174575;23;20459;-73
2023/01/29 09:03:02;;;;;;;1.70;1.60;;;-1.20;98.20;;;;;;6208180;22;20502;-73
2023/01/29 09:05:31;;;;;;;1.80;1.70;;;-1.20;98.20;;;;;;6174073;23;20475;-73
2023/01/29 09:07:59;;;;;;;1.90;1.70;;;-1.20;98.20;;;;;;6208502;22;20446;-73
2023/01/29 09:10:27;;;;;;;1.80;1.70;;;-1.20;98.20;;;;;;6184867;23;20790;-73
2023/01/29 09:12:55;;;;;;;1.80;1.70;;;-1.20;98.20;;;;;;6209151;22;20457;-73
2023/01/29 09:15:22;;;;;;;1.70;1.60;;;-1.20;98.20;;;;;;6175121;23;20443;-73
2023/01/29 09:17:50;;;;;;;1.80;1.70;;;-1.10;98.20;;;;;;6207159;22;20446;-73
2023/01/29 09:20:19;;;;;;;1.90;1.80;;;-1.10;98.20;;;;;;6183820;23;20427;-74
2023/01/29 09:22:50;;;;;;;1.80;1.70;;;-0.90;98.20;;;;;;6208682;22;20473;-73
2023/01/29 09:25:18;;;;;;;1.90;1.80;;;-0.80;98.20;;;;;;6184679;23;20447;-73
2023/01/29 09:27:46;;;;;;;1.80;1.70;;;-0.80;98.20;;;;;;6206301;22;20827;-74
2023/01/29 09:30:15;;;;;;;1.90;1.80;;;-0.70;98.20;;;;;;6171719;23;20423;-73
2023/01/29 09:32:42;;;;;;;1.70;1.60;;;-0.60;98.20;;;;;;6207051;22;20870;-73
2023/01/29 09:35:10;;;;;;;1.73;1.63;;;-0.60;98.20;;;;;;6176329;23;20494;-73
2023/01/29 09:37:37;;;;;;;1.80;1.70;;;-0.60;98.20;;;;;;6203833;22;20504;-72
2023/01/29 09:40:08;;;;;;;1.80;1.70;;;-0.60;98.20;;;;;;6186590;23;20467;-71
2023/01/29 09:42:47;;;;;;;1.80;1.70;;;-0.50;98.20;;;;;;6204558;22;20528;-71
2023/01/29 09:45:21;;;;;;;1.80;1.70;;;-0.40;98.20;;;;;;6174761;23;20450;-73
2023/01/29 09:47:48;;;;;;;1.70;1.60;;;-0.40;98.20;;;;;;6206606;22;20446;-73
2023/01/29 09:50:20;;;;;;;2.73;2.53;;;-0.40;98.20;;;;;;6174000;23;20424;-72
2023/01/29 09:52:52;;;;;;;1.90;1.80;;;-0.40;98.20;;;;;;6209216;22;20812;-72
2023/01/29 09:55:25;;;;;;;1.80;1.70;;;-0.30;98.20;;;;;;6174844;23;20514;-73
2023/01/29 09:57:56;;;;;;;1.80;1.70;;;-0.20;98.20;;;;;;6206000;22;20476;-72
2023/01/29 10:00:25;;;;;;;1.97;1.77;;;-0.10;98.20;;;;;;6174347;23;20980;-72
2023/01/29 10:03:09;;;;;;;1.90;1.80;;;0.00;98.20;;;;;;6207668;22;20941;-73
2023/01/29 10:05:49;;;;;;;1.70;1.60;;;0.10;98.20;;;;;;6175707;23;20490;-72
2023/01/29 10:08:56;;;;;;;1.70;1.60;;;0.10;98.20;;;;;;6156881;23;20451;-73
2023/01/29 10:11:37;;;;;;;1.80;1.70;;;0.10;98.20;;;;;;6159242;22;20812;-73
2023/01/29 10:14:14;;;;;;;2.17;1.97;;;0.20;98.20;;;;;;6214260;23;20458;-72
2023/01/29 10:16:55;;;;;;;3.50;3.30;;;0.30;98.20;;;;;;6189404;22;20609;-71
2023/01/29 10:19:39;;;;;;;1.73;1.63;;;0.30;98.20;;;;;;6197384;23;20410;-71
2023/01/29 10:22:28;;;;;;;1.70;1.60;;;0.40;98.20;;;;;;6196941;22;20552;-71
2023/01/29 10:24:59;;;;;;;1.67;1.50;;;0.30;98.20;;;;;;6182419;23;20491;-71
2023/01/29 10:27:34;;;;;;;1.90;1.80;;;0.40;98.20;;;;;;6200689;22;20445;-73
2023/01/29 10:30:08;;;;;;;1.80;1.70;;;0.40;98.20;;;;;;6189220;23;20414;-70
2023/01/29 10:32:37;;;;;;;1.70;1.50;;;0.50;98.20;;;;;;6205215;22;20449;-70
2023/01/29 10:35:13;;;;;;;1.80;1.70;;;0.60;98.20;;;;;;6181231;23;20447;-72
2023/01/29 10:37:42;;;;;;;1.73;1.60;;;0.60;98.20;;;;;;6207798;22;20452;-77
2023/01/29 10:40:21;;;;;;;1.70;1.60;;;0.70;98.20;;;;;;6179139;23;20789;-72
2023/01/29 10:42:56;;;;;;;1.70;1.50;;;0.70;98.20;;;;;;6210953;22;20454;-72
2023/01/29 10:45:30;;;;;;;2.40;2.20;;;0.80;98.20;;;;;;6176795;23;20443;-73
2023/01/29 10:48:25;;;;;;;1.70;1.60;;;0.90;98.20;;;;;;6207924;22;20454;-73
2023/01/29 10:51:01;;;;;;;1.70;1.60;;;0.90;98.20;;;;;;6162897;22;20470;-71
2023/01/29 10:53:39;;;;;;;1.70;1.50;;;0.90;98.20;;;;;;6219016;23;20407;-72
2023/01/29 10:56:25;;;;;;;1.70;1.50;;;0.90;98.20;;;;;;6168205;22;20439;-73
2023/01/29 10:58:57;;;;;;;2.20;2.00;;;0.80;98.20;;;;;;6207290;23;20408;-73
2023/01/29 11:01:25;;;;;;;1.77;1.67;;;0.80;98.20;;;;;;6174973;22;20446;-72
2023/01/29 11:03:58;;;;;;;1.70;1.50;;;0.80;98.20;;;;;;6219572;23;20851;-72
2023/01/29 11:06:31;;;;;;;1.67;1.57;;;0.80;98.20;;;;;;6185039;22;20919;-72
2023/01/29 11:09:06;;;;;;;1.70;1.60;;;0.80;98.20;;;;;;6217491;23;20447;-72
2023/01/29 11:11:40;;;;;;;1.67;1.47;;;0.90;98.20;;;;;;6181379;22;20870;-72
2023/01/29 11:14:14;;;;;;;1.80;1.60;;;1.00;98.20;;;;;;6203337;23;20408;-74
2023/01/29 11:16:43;;;;;;;2.63;2.43;;;1.00;98.20;;;;;;6182729;22;20550;-73
2023/01/29 11:19:11;;;;;;;1.70;1.50;;;1.10;98.20;;;;;;6201779;23;20428;-71
2023/01/29 11:21:52;;;;;;;1.70;1.60;;;1.30;98.20;;;;;;6183037;22;20537;-71
2023/01/29 11:24:20;;;;;;;2.57;2.37;;;1.40;98.20;;;;;;6196924;23;20408;-72
2023/01/29 11:26:50;;;;;;;8.23;5.77;;;1.50;98.20;;;;;;6184433;22;20521;-73
2023/01/29 11:29:39;;;;;;;1.70;1.50;;;1.50;98.20;;;;;;6195989;23;20420;-72
2023/01/29 11:32:11;;;;;;;1.67;1.53;;;1.50;98.20;;;;;;6192842;22;20529;-74
2023/01/29 11:34:59;;;;;;;1.63;1.50;;;1.60;98.20;;;;;;6190807;23;20444;-73
2023/01/29 11:37:34;;;;;;;1.70;1.40;;;1.60;98.20;;;;;;6204179;22;20697;-73
2023/01/29 11:40:02;;;;;;;1.70;1.40;;;1.60;98.20;;;;;;6181218;23;20758;-71
2023/01/29 11:42:32;;;;;;;2.67;2.47;;;1.60;98.20;;;;;;6204268;22;20473;-71
2023/01/29 11:45:01;;;;;;;1.80;1.70;;;1.50;98.20;;;;;;6183810;23;20443;-71
2023/01/29 11:47:30;;;;;;;1.60;1.40;;;1.60;98.20;;;;;;6198013;22;21042;-73
2023/01/29 11:49:59;;;;;;;1.70;1.57;;;1.60;98.20;;;;;;6183597;23;20420;-73
2023/01/29 11:52:36;;;;;;;1.67;1.40;;;1.50;98.20;;;;;;6202567;22;20442;-73
2023/01/29 11:55:07;;;;;;;1.60;1.40;;;1.50;98.20;;;;;;6178868;23;20562;-73
2023/01/29 11:57:38;;;;;;;1.70;1.60;;;1.50;98.20;;;;;;6205665;22;20438;-73
2023/01/29 12:00:17;;;;;;;1.77;1.67;;;1.50;98.20;;;;;;6188694;23;20724;-73
2023/01/29 12:02:48;;;;;;;1.70;1.60;;;1.50;98.20;;;;;;6209282;22;20441;-73
2023/01/29 12:05:19;;;;;;;1.70;1.50;;;1.50;98.20;;;;;;6177521;23;20410;-72
2023/01/29 12:07:49;;;;;;;1.67;1.50;;;1.60;98.20;;;;;;6211751;22;20450;-72
2023/01/29 12:10:34;;;;;;;2.27;2.07;;;1.70;98.20;;;;;;6176879;23;20479;-71
2023/01/29 12:13:06;;;;;;;1.67;1.40;;;1.80;98.20;;;;;;6212110;22;20457;-72
2023/01/29 12:15:35;;;;;;;3.37;2.63;;;1.80;98.20;;;;;;6172938;23;20507;-71
2023/01/29 12:18:11;;;;;;;1.70;1.50;;;1.80;98.20;;;;;;6208574;22;20526;-74
2023/01/29 12:20:44;;;;;;;1.70;1.60;;;1.90;98.20;;;;;;6177760;23;20407;-72
2023/01/29 12:23:35;;;;;;;1.97;1.77;;;1.90;98.20;;;;;;6169530;23;20439;-74
2023/01/29 12:26:07;;;;;;;1.63;1.50;;;1.90;98.20;;;;;;6166860;22;20444;-73
2023/01/29 12:28:48;;;;;;;1.63;1.50;;;1.90;98.20;;;;;;6224816;23;20800;-73
2023/01/29 12:31:26;;;;;;;1.70;1.50;;;2.00;98.20;;;;;;6170851;22;20835;-72
2023/01/29 12:34:01;;;;;;;1.70;1.43;;;2.00;98.20;;;;;;6207630;23;20407;-73
2023/01/29 12:36:36;;;;;;;1.70;1.50;;;2.00;98.20;;;;;;6177084;22;20453;-73
2023/01/29 12:39:04;;;;;;;1.70;1.50;;;2.00;98.20;;;;;;6203558;23;20442;-73
2023/01/29 12:41:40;;;;;;;1.63;1.50;;;2.00;98.20;;;;;;6178704;22;20446;-73
2023/01/29 12:44:15;;;;;;;1.63;1.40;;;1.90;98.20;;;;;;6203327;23;20960;-75
2023/01/29 12:46:49;;;;;;;1.70;1.40;;;1.90;98.20;;;;;;6183975;22;20446;-72
2023/01/29 12:49:23;;;;;;;1.70;1.57;;;1.90;98.20;;;;;;6201111;23;20758;-78
2023/01/29 12:51:57;;;;;;;1.70;1.60;;;2.00;98.20;;;;;;6187373;22;20452;-74
2023/01/29 12:54:34;;;;;;;1.73;1.63;;;2.10;98.20;;;;;;6196315;23;20827;-75
2023/01/29 12:57:08;;;;;;;1.60;1.40;;;2.10;98.20;;;;;;6192256;22;20449;-74
2023/01/29 12:59:42;;;;;;;2.03;1.83;;;2.20;98.20;;;;;;6192685;23;20436;-74
2023/01/29 13:02:32;;;;;;;1.70;1.60;;;2.20;98.20;;;;;;6195038;22;20496;-73
2023/01/29 13:05:06;;;;;;;1.70;1.40;;;2.20;98.20;;;;;;6191938;23;20784;-73
2023/01/29 13:07:38;;;;;;;17.00;15.30;;;2.20;98.20;;;;;;6202046;22;20465;-73
2023/01/29 13:10:12;;;;;;;2.03;1.83;;;2.30;98.20;;;;;;6187798;23;20432;-73
2023/01/29 13:12:46;;;;;;;1.70;1.47;;;2.40;98.20;;;;;;6204815;22;20527;-73
2023/01/29 13:15:22;;;;;;;1.67;1.50;;;2.40;98.20;;;;;;6185816;23;20454;-72
2023/01/29 13:17:54;;;;;;;1.63;1.40;;;2.40;98.20;;;;;;6208052;22;20879;-73
2023/01/29 13:20:26;;;;;;;1.60;1.40;;;2.40;98.20;;;;;;6175213;23;20536;-73
2023/01/29 13:22:58;;;;;;;1.63;1.40;;;2.40;98.20;;;;;;6210987;22;20450;-73
2023/01/29 13:25:26;;;;;;;3.30;3.10;;;2.40;98.20;;;;;;6185346;23;20413;-73
2023/01/29 13:27:54;;;;;;;1.70;1.40;;;2.50;98.20;;;;;;6209337;22;20694;-73
2023/01/29 13:30:27;;;;;;;1.67;1.40;;;2.60;98.20;;;;;;6176850;23;20442;-73
2023/01/29 13:33:07;;;;;;;1.97;1.77;;;2.70;98.20;;;;;;6209670;22;20716;-73
2023/01/29 13:35:37;;;;;;;4.17;3.97;;;2.60;98.20;;;;;;6174895;23;20407;-73
2023/01/29 13:38:06;;;;;;;1.63;1.40;;;2.60;98.20;;;;;;6208358;22;20865;-72
2023/01/29 13:40:34;;;;;;;1.70;1.50;;;2.60;98.20;;;;;;6175205;23;20420;-73
2023/01/29 13:43:04;;;;;;;1.67;1.40;;;2.70;98.20;;;;;;6209145;22;20450;-73
2023/01/29 13:45:37;;;;;;;1.67;1.40;;;2.70;98.20;;;;;;6174793;23;20462;-72